sensor_id;sensor_type;location;lat;lon;timestamp;P1;durP1;ratioP1;P2;durP2;ratioP2
33672;SDS011;20011;51.510;9.942;2022-08-25T00:00:09;10.48;;;3.10;;
33672;SDS011;20011;51.510;9.942;2022-08-25T00:02:37;4.93;;;2.80;;
33672;SDS011;20011;51.510;9.942;2022-08-25T00:05:05;5.45;;;2.97;;
33672;SDS011;20011;51.510;9.942;2022-08-25T00:07:34;7.13;;;3.17;;
33672;SDS011;20011;51.510;9.942;2022-08-25T00:10:03;12.85;;;2.65;;
33672;SDS011;20011;51.510;9.942;2022-08-25T00:12:31;9.07;;;4.18;;
33672;SDS011;20011;51.510;9.942;2022-08-25T00:14:59;10.98;;;2.95;;
33672;SDS011;20011;51.510;9.942;2022-08-25T00:17:26;9.18;;;3.08;;
33672;SDS011;20011;51.510;9.942;2022-08-25T00:19:54;13.15;;;2.70;;
33672;SDS011;20011;51.510;9.942;2022-08-25T00:22:21;3.03;;;2.63;;
33672;SDS011;20011;51.510;9.942;2022-08-25T00:24:48;9.32;;;2.90;;
33672;SDS011;20011;51.510;9.942;2022-08-25T00:27:16;6.00;;;2.67;;
33672;SDS011;20011;51.510;9.942;2022-08-25T00:29:43;5.38;;;2.22;;
33672;SDS011;20011;51.510;9.942;2022-08-25T00:32:10;4.78;;;2.88;;
33672;SDS011;20011;51.510;9.942;2022-08-25T00:34:38;6.38;;;2.75;;
33672;SDS011;20011;51.510;9.942;2022-08-25T00:37:06;5.72;;;2.85;;
33672;SDS011;20011;51.510;9.942;2022-08-25T00:39:35;7.43;;;3.05;;
33672;SDS011;20011;51.510;9.942;2022-08-25T00:42:03;8.02;;;3.70;;
33672;SDS011;20011;51.510;9.942;2022-08-25T00:44:37;2.75;;;2.35;;
33672;SDS011;20011;51.510;9.942;2022-08-25T00:47:05;4.57;;;3.00;;
33672;SDS011;20011;51.510;9.942;2022-08-25T00:49:41;7.47;;;2.80;;
33672;SDS011;20011;51.510;9.942;2022-08-25T00:52:19;9.65;;;3.45;;
33672;SDS011;20011;51.510;9.942;2022-08-25T00:57:26;7.00;;;2.83;;
33672;SDS011;20011;51.510;9.942;2022-08-25T01:00:00;12.98;;;3.20;;
33672;SDS011;20011;51.510;9.942;2022-08-25T01:02:27;6.47;;;3.50;;
33672;SDS011;20011;51.510;9.942;2022-08-25T01:04:55;5.43;;;2.92;;
33672;SDS011;20011;51.510;9.942;2022-08-25T01:07:23;9.55;;;3.25;;
33672;SDS011;20011;51.510;9.942;2022-08-25T01:09:51;12.75;;;3.22;;
33672;SDS011;20011;51.510;9.942;2022-08-25T01:12:18;4.45;;;2.97;;
33672;SDS011;20011;51.510;9.942;2022-08-25T01:14:47;5.40;;;3.15;;
33672;SDS011;20011;51.510;9.942;2022-08-25T01:17:15;10.88;;;3.00;;
33672;SDS011;20011;51.510;9.942;2022-08-25T01:19:42;11.43;;;3.33;;
33672;SDS011;20011;51.510;9.942;2022-08-25T01:22:10;7.20;;;3.40;;
33672;SDS011;20011;51.510;9.942;2022-08-25T01:24:44;6.50;;;3.13;;
33672;SDS011;20011;51.510;9.942;2022-08-25T01:27:20;14.80;;;3.20;;
33672;SDS011;20011;51.510;9.942;2022-08-25T01:29:47;4.80;;;2.92;;
33672;SDS011;20011;51.510;9.942;2022-08-25T01:32:14;5.07;;;2.80;;
33672;SDS011;20011;51.510;9.942;2022-08-25T01:34:43;15.45;;;4.78;;
33672;SDS011;20011;51.510;9.942;2022-08-25T01:37:11;4.55;;;3.08;;
33672;SDS011;20011;51.510;9.942;2022-08-25T01:39:41;8.07;;;3.42;;
33672;SDS011;20011;51.510;9.942;2022-08-25T01:42:16;4.22;;;3.13;;
33672;SDS011;20011;51.510;9.942;2022-08-25T01:44:48;7.40;;;3.20;;
33672;SDS011;20011;51.510;9.942;2022-08-25T01:47:15;8.30;;;3.40;;
33672;SDS011;20011;51.510;9.942;2022-08-25T01:49:43;6.78;;;3.28;;
33672;SDS011;20011;51.510;9.942;2022-08-25T01:54:42;5.20;;;3.08;;
33672;SDS011;20011;51.510;9.942;2022-08-25T01:57:10;5.07;;;3.22;;
33672;SDS011;20011;51.510;9.942;2022-08-25T01:59:37;7.18;;;3.53;;
33672;SDS011;20011;51.510;9.942;2022-08-25T02:02:05;9.52;;;3.38;;
33672;SDS011;20011;51.510;9.942;2022-08-25T02:04:32;5.57;;;3.25;;
33672;SDS011;20011;51.510;9.942;2022-08-25T02:07:00;4.95;;;3.58;;
33672;SDS011;20011;51.510;9.942;2022-08-25T02:09:29;6.43;;;3.85;;
33672;SDS011;20011;51.510;9.942;2022-08-25T02:11:57;10.23;;;3.60;;
33672;SDS011;20011;51.510;9.942;2022-08-25T02:14:24;5.78;;;3.53;;
33672;SDS011;20011;51.510;9.942;2022-08-25T02:16:52;4.72;;;3.95;;
33672;SDS011;20011;51.510;9.942;2022-08-25T02:19:20;8.07;;;3.55;;
33672;SDS011;20011;51.510;9.942;2022-08-25T02:21:49;5.38;;;3.67;;
33672;SDS011;20011;51.510;9.942;2022-08-25T02:24:17;9.02;;;3.38;;
33672;SDS011;20011;51.510;9.942;2022-08-25T02:26:44;4.35;;;3.65;;
33672;SDS011;20011;51.510;9.942;2022-08-25T02:29:12;5.43;;;2.72;;
33672;SDS011;20011;51.510;9.942;2022-08-25T02:31:39;12.93;;;3.38;;
33672;SDS011;20011;51.510;9.942;2022-08-25T02:34:08;5.47;;;3.20;;
33672;SDS011;20011;51.510;9.942;2022-08-25T02:36:36;8.15;;;3.95;;
33672;SDS011;20011;51.510;9.942;2022-08-25T02:39:05;6.28;;;3.60;;
33672;SDS011;20011;51.510;9.942;2022-08-25T02:41:33;6.90;;;3.42;;
33672;SDS011;20011;51.510;9.942;2022-08-25T02:44:01;9.75;;;3.63;;
33672;SDS011;20011;51.510;9.942;2022-08-25T02:46:29;7.90;;;3.67;;
33672;SDS011;20011;51.510;9.942;2022-08-25T02:48:57;6.53;;;3.58;;
33672;SDS011;20011;51.510;9.942;2022-08-25T02:51:24;5.68;;;3.08;;
33672;SDS011;20011;51.510;9.942;2022-08-25T02:53:53;7.17;;;3.90;;
33672;SDS011;20011;51.510;9.942;2022-08-25T02:56:22;10.65;;;4.35;;
33672;SDS011;20011;51.510;9.942;2022-08-25T02:58:51;5.22;;;3.85;;
33672;SDS011;20011;51.510;9.942;2022-08-25T03:01:18;7.57;;;4.15;;
33672;SDS011;20011;51.510;9.942;2022-08-25T03:03:47;5.70;;;3.88;;
33672;SDS011;20011;51.510;9.942;2022-08-25T03:08:47;12.75;;;3.88;;
33672;SDS011;20011;51.510;9.942;2022-08-25T03:11:15;9.13;;;3.85;;
33672;SDS011;20011;51.510;9.942;2022-08-25T03:13:43;6.90;;;3.88;;
33672;SDS011;20011;51.510;9.942;2022-08-25T03:16:10;7.60;;;4.40;;
33672;SDS011;20011;51.510;9.942;2022-08-25T03:18:39;15.88;;;4.30;;
33672;SDS011;20011;51.510;9.942;2022-08-25T03:21:08;6.65;;;3.75;;
33672;SDS011;20011;51.510;9.942;2022-08-25T03:23:37;6.60;;;4.20;;
33672;SDS011;20011;51.510;9.942;2022-08-25T03:26:04;5.90;;;3.63;;
33672;SDS011;20011;51.510;9.942;2022-08-25T03:28:51;5.32;;;3.33;;
33672;SDS011;20011;51.510;9.942;2022-08-25T03:31:24;5.80;;;3.88;;
33672;SDS011;20011;51.510;9.942;2022-08-25T03:33:54;5.60;;;3.53;;
33672;SDS011;20011;51.510;9.942;2022-08-25T03:36:21;8.80;;;3.92;;
33672;SDS011;20011;51.510;9.942;2022-08-25T03:38:49;7.47;;;4.07;;
33672;SDS011;20011;51.510;9.942;2022-08-25T03:41:19;6.18;;;4.05;;
33672;SDS011;20011;51.510;9.942;2022-08-25T03:43:48;8.13;;;3.78;;
33672;SDS011;20011;51.510;9.942;2022-08-25T03:46:20;6.07;;;3.60;;
33672;SDS011;20011;51.510;9.942;2022-08-25T03:48:50;14.35;;;5.53;;
33672;SDS011;20011;51.510;9.942;2022-08-25T03:51:29;7.20;;;4.07;;
33672;SDS011;20011;51.510;9.942;2022-08-25T03:54:02;10.65;;;4.45;;
33672;SDS011;20011;51.510;9.942;2022-08-25T03:56:30;5.00;;;4.10;;
33672;SDS011;20011;51.510;9.942;2022-08-25T03:58:57;9.82;;;4.18;;
33672;SDS011;20011;51.510;9.942;2022-08-25T04:01:25;5.80;;;3.83;;
33672;SDS011;20011;51.510;9.942;2022-08-25T04:03:54;10.65;;;4.07;;
33672;SDS011;20011;51.510;9.942;2022-08-25T04:06:22;9.43;;;4.00;;
33672;SDS011;20011;51.510;9.942;2022-08-25T04:08:49;7.13;;;4.78;;
33672;SDS011;20011;51.510;9.942;2022-08-25T04:11:20;7.22;;;4.93;;
33672;SDS011;20011;51.510;9.942;2022-08-25T04:13:49;8.60;;;4.22;;
33672;SDS011;20011;51.510;9.942;2022-08-25T04:16:24;4.20;;;3.47;;
33672;SDS011;20011;51.510;9.942;2022-08-25T04:18:53;12.15;;;3.88;;
33672;SDS011;20011;51.510;9.942;2022-08-25T04:21:21;15.55;;;4.25;;
33672;SDS011;20011;51.510;9.942;2022-08-25T04:23:50;5.47;;;3.75;;
33672;SDS011;20011;51.510;9.942;2022-08-25T04:26:25;4.82;;;3.63;;
33672;SDS011;20011;51.510;9.942;2022-08-25T04:29:01;13.27;;;4.05;;
33672;SDS011;20011;51.510;9.942;2022-08-25T04:31:30;8.10;;;4.03;;
33672;SDS011;20011;51.510;9.942;2022-08-25T04:34:00;8.85;;;4.18;;
33672;SDS011;20011;51.510;9.942;2022-08-25T04:36:28;8.00;;;3.90;;
33672;SDS011;20011;51.510;9.942;2022-08-25T04:38:56;6.70;;;3.92;;
33672;SDS011;20011;51.510;9.942;2022-08-25T04:41:23;6.28;;;4.20;;
33672;SDS011;20011;51.510;9.942;2022-08-25T04:43:51;6.25;;;3.80;;
33672;SDS011;20011;51.510;9.942;2022-08-25T04:46:23;6.70;;;3.95;;
33672;SDS011;20011;51.510;9.942;2022-08-25T04:48:54;6.18;;;3.85;;
33672;SDS011;20011;51.510;9.942;2022-08-25T04:51:23;10.77;;;3.72;;
33672;SDS011;20011;51.510;9.942;2022-08-25T04:53:53;8.75;;;3.85;;
33672;SDS011;20011;51.510;9.942;2022-08-25T04:56:21;7.05;;;3.80;;
33672;SDS011;20011;51.510;9.942;2022-08-25T04:58:52;6.30;;;4.13;;
33672;SDS011;20011;51.510;9.942;2022-08-25T05:01:21;9.75;;;4.13;;
33672;SDS011;20011;51.510;9.942;2022-08-25T05:04:01;12.00;;;3.78;;
33672;SDS011;20011;51.510;9.942;2022-08-25T05:06:30;4.97;;;3.80;;
33672;SDS011;20011;51.510;9.942;2022-08-25T05:08:58;9.10;;;5.00;;
33672;SDS011;20011;51.510;9.942;2022-08-25T05:11:28;13.85;;;3.85;;
33672;SDS011;20011;51.510;9.942;2022-08-25T05:13:59;13.32;;;3.92;;
33672;SDS011;20011;51.510;9.942;2022-08-25T05:16:27;5.05;;;3.65;;
33672;SDS011;20011;51.510;9.942;2022-08-25T05:18:55;6.40;;;3.88;;
33672;SDS011;20011;51.510;9.942;2022-08-25T05:21:24;20.13;;;4.32;;
33672;SDS011;20011;51.510;9.942;2022-08-25T05:23:53;8.60;;;4.50;;
33672;SDS011;20011;51.510;9.942;2022-08-25T05:26:23;6.68;;;4.55;;
33672;SDS011;20011;51.510;9.942;2022-08-25T05:28:52;12.73;;;5.03;;
33672;SDS011;20011;51.510;9.942;2022-08-25T05:31:22;7.93;;;4.13;;
33672;SDS011;20011;51.510;9.942;2022-08-25T05:33:51;15.93;;;4.28;;
33672;SDS011;20011;51.510;9.942;2022-08-25T05:36:21;17.40;;;5.13;;
33672;SDS011;20011;51.510;9.942;2022-08-25T05:38:48;9.23;;;4.10;;
33672;SDS011;20011;51.510;9.942;2022-08-25T05:41:17;7.72;;;4.68;;
33672;SDS011;20011;51.510;9.942;2022-08-25T05:43:46;6.47;;;3.80;;
33672;SDS011;20011;51.510;9.942;2022-08-25T05:46:15;9.40;;;4.55;;
33672;SDS011;20011;51.510;9.942;2022-08-25T05:48:44;5.85;;;4.50;;
33672;SDS011;20011;51.510;9.942;2022-08-25T05:51:12;6.68;;;4.40;;
33672;SDS011;20011;51.510;9.942;2022-08-25T05:53:41;7.55;;;4.13;;
33672;SDS011;20011;51.510;9.942;2022-08-25T05:56:10;7.57;;;4.65;;
33672;SDS011;20011;51.510;9.942;2022-08-25T05:58:39;14.88;;;4.57;;
33672;SDS011;20011;51.510;9.942;2022-08-25T06:01:07;9.52;;;4.47;;
33672;SDS011;20011;51.510;9.942;2022-08-25T06:03:54;6.47;;;4.43;;
33672;SDS011;20011;51.510;9.942;2022-08-25T06:06:21;8.15;;;4.63;;
33672;SDS011;20011;51.510;9.942;2022-08-25T06:08:49;7.45;;;4.55;;
33672;SDS011;20011;51.510;9.942;2022-08-25T06:11:17;8.70;;;5.43;;
33672;SDS011;20011;51.510;9.942;2022-08-25T06:13:45;6.45;;;4.13;;
33672;SDS011;20011;51.510;9.942;2022-08-25T06:16:12;8.50;;;4.35;;
33672;SDS011;20011;51.510;9.942;2022-08-25T06:18:39;6.38;;;4.13;;
33672;SDS011;20011;51.510;9.942;2022-08-25T06:21:13;6.78;;;4.40;;
33672;SDS011;20011;51.510;9.942;2022-08-25T06:23:41;9.18;;;4.68;;
33672;SDS011;20011;51.510;9.942;2022-08-25T06:26:09;16.13;;;5.50;;
33672;SDS011;20011;51.510;9.942;2022-08-25T06:28:47;13.05;;;5.00;;
33672;SDS011;20011;51.510;9.942;2022-08-25T06:31:15;10.75;;;4.72;;
33672;SDS011;20011;51.510;9.942;2022-08-25T06:33:42;8.05;;;5.03;;
33672;SDS011;20011;51.510;9.942;2022-08-25T06:36:10;9.18;;;5.25;;
33672;SDS011;20011;51.510;9.942;2022-08-25T06:38:38;10.73;;;5.90;;
33672;SDS011;20011;51.510;9.942;2022-08-25T06:41:05;18.98;;;5.72;;
33672;SDS011;20011;51.510;9.942;2022-08-25T06:43:36;28.77;;;6.15;;
33672;SDS011;20011;51.510;9.942;2022-08-25T06:46:09;9.43;;;5.97;;
33672;SDS011;20011;51.510;9.942;2022-08-25T06:48:41;8.73;;;5.30;;
33672;SDS011;20011;51.510;9.942;2022-08-25T06:51:10;13.80;;;6.25;;
33672;SDS011;20011;51.510;9.942;2022-08-25T06:53:39;7.30;;;5.20;;
33672;SDS011;20011;51.510;9.942;2022-08-25T06:56:08;9.63;;;5.55;;
33672;SDS011;20011;51.510;9.942;2022-08-25T06:58:35;9.27;;;6.20;;
33672;SDS011;20011;51.510;9.942;2022-08-25T07:01:10;15.52;;;6.82;;
33672;SDS011;20011;51.510;9.942;2022-08-25T07:03:45;10.43;;;5.90;;
33672;SDS011;20011;51.510;9.942;2022-08-25T07:06:13;19.35;;;7.05;;
33672;SDS011;20011;51.510;9.942;2022-08-25T07:08:44;8.32;;;5.72;;
33672;SDS011;20011;51.510;9.942;2022-08-25T07:11:11;12.45;;;5.80;;
33672;SDS011;20011;51.510;9.942;2022-08-25T07:13:43;9.43;;;5.68;;
33672;SDS011;20011;51.510;9.942;2022-08-25T07:16:10;10.30;;;6.53;;
33672;SDS011;20011;51.510;9.942;2022-08-25T07:18:37;9.57;;;5.47;;
33672;SDS011;20011;51.510;9.942;2022-08-25T07:21:05;10.00;;;5.53;;
33672;SDS011;20011;51.510;9.942;2022-08-25T07:23:34;9.43;;;5.47;;
33672;SDS011;20011;51.510;9.942;2022-08-25T07:26:06;11.48;;;5.80;;
33672;SDS011;20011;51.510;9.942;2022-08-25T07:28:59;11.85;;;6.00;;
33672;SDS011;20011;51.510;9.942;2022-08-25T07:31:28;24.13;;;6.60;;
33672;SDS011;20011;51.510;9.942;2022-08-25T07:33:56;11.93;;;5.55;;
33672;SDS011;20011;51.510;9.942;2022-08-25T07:36:42;9.63;;;5.15;;
33672;SDS011;20011;51.510;9.942;2022-08-25T07:39:10;15.25;;;5.65;;
33672;SDS011;20011;51.510;9.942;2022-08-25T07:41:38;13.10;;;6.15;;
33672;SDS011;20011;51.510;9.942;2022-08-25T07:44:07;13.02;;;6.93;;
33672;SDS011;20011;51.510;9.942;2022-08-25T07:46:36;9.25;;;5.78;;
33672;SDS011;20011;51.510;9.942;2022-08-25T07:49:04;11.15;;;6.07;;
33672;SDS011;20011;51.510;9.942;2022-08-25T07:51:42;10.65;;;5.97;;
33672;SDS011;20011;51.510;9.942;2022-08-25T07:54:30;10.05;;;5.53;;
33672;SDS011;20011;51.510;9.942;2022-08-25T07:57:00;19.92;;;7.03;;
33672;SDS011;20011;51.510;9.942;2022-08-25T07:59:29;15.63;;;6.13;;
33672;SDS011;20011;51.510;9.942;2022-08-25T08:02:06;11.43;;;5.72;;
33672;SDS011;20011;51.510;9.942;2022-08-25T08:04:45;20.48;;;7.25;;
33672;SDS011;20011;51.510;9.942;2022-08-25T08:07:16;17.33;;;6.90;;
33672;SDS011;20011;51.510;9.942;2022-08-25T08:09:44;15.57;;;6.22;;
33672;SDS011;20011;51.510;9.942;2022-08-25T08:12:11;15.00;;;8.05;;
33672;SDS011;20011;51.510;9.942;2022-08-25T08:14:40;24.17;;;6.60;;
33672;SDS011;20011;51.510;9.942;2022-08-25T08:17:11;24.77;;;7.35;;
33672;SDS011;20011;51.510;9.942;2022-08-25T08:19:39;21.85;;;8.60;;
33672;SDS011;20011;51.510;9.942;2022-08-25T08:22:11;21.95;;;7.90;;
33672;SDS011;20011;51.510;9.942;2022-08-25T08:24:41;25.75;;;7.95;;
33672;SDS011;20011;51.510;9.942;2022-08-25T08:27:21;14.18;;;8.40;;
33672;SDS011;20011;51.510;9.942;2022-08-25T08:29:49;21.50;;;8.68;;
33672;SDS011;20011;51.510;9.942;2022-08-25T08:32:17;22.60;;;9.23;;
33672;SDS011;20011;51.510;9.942;2022-08-25T08:34:44;30.73;;;9.07;;
33672;SDS011;20011;51.510;9.942;2022-08-25T08:37:16;27.25;;;8.95;;
33672;SDS011;20011;51.510;9.942;2022-08-25T08:39:48;14.85;;;8.55;;
33672;SDS011;20011;51.510;9.942;2022-08-25T08:45:19;17.05;;;8.95;;
33672;SDS011;20011;51.510;9.942;2022-08-25T08:54:00;14.20;;;8.93;;
33672;SDS011;20011;51.510;9.942;2022-08-25T08:56:24;18.75;;;9.60;;
33672;SDS011;20011;51.510;9.942;2022-08-25T08:59:04;15.68;;;9.05;;
33672;SDS011;20011;51.510;9.942;2022-08-25T09:01:41;16.33;;;6.43;;
33672;SDS011;20011;51.510;9.942;2022-08-25T09:04:22;7.05;;;5.57;;
33672;SDS011;20011;51.510;9.942;2022-08-25T09:06:54;10.18;;;4.78;;
33672;SDS011;20011;51.510;9.942;2022-08-25T09:09:28;7.75;;;4.40;;
33672;SDS011;20011;51.510;9.942;2022-08-25T09:20:41;14.70;;;7.13;;
33672;SDS011;20011;51.510;9.942;2022-08-25T09:33:56;5.60;;;3.42;;
33672;SDS011;20011;51.510;9.942;2022-08-25T09:36:25;8.25;;;3.50;;
33672;SDS011;20011;51.510;9.942;2022-08-25T09:38:52;4.00;;;3.30;;
33672;SDS011;20011;51.510;9.942;2022-08-25T09:44:15;4.63;;;3.47;;
33672;SDS011;20011;51.510;9.942;2022-08-25T09:46:54;4.40;;;3.45;;
33672;SDS011;20011;51.510;9.942;2022-08-25T09:49:30;5.38;;;4.55;;
33672;SDS011;20011;51.510;9.942;2022-08-25T09:52:15;7.60;;;4.43;;
33672;SDS011;20011;51.510;9.942;2022-08-25T10:03:10;6.90;;;4.53;;
33672;SDS011;20011;51.510;9.942;2022-08-25T10:08:27;3.83;;;3.42;;
33672;SDS011;20011;51.510;9.942;2022-08-25T10:10:59;7.03;;;4.10;;
33672;SDS011;20011;51.510;9.942;2022-08-25T10:13:41;8.43;;;4.35;;
33672;SDS011;20011;51.510;9.942;2022-08-25T10:16:11;4.25;;;3.80;;
33672;SDS011;20011;51.510;9.942;2022-08-25T10:21:39;7.03;;;3.92;;
33672;SDS011;20011;51.510;9.942;2022-08-25T10:24:08;3.70;;;3.22;;
33672;SDS011;20011;51.510;9.942;2022-08-25T10:26:41;3.38;;;2.65;;
33672;SDS011;20011;51.510;9.942;2022-08-25T10:37:55;4.07;;;2.40;;
33672;SDS011;20011;51.510;9.942;2022-08-25T10:40:12;8.10;;;4.60;;
33672;SDS011;20011;51.510;9.942;2022-08-25T10:43:03;8.07;;;5.10;;
33672;SDS011;20011;51.510;9.942;2022-08-25T10:45:50;6.60;;;4.20;;
33672;SDS011;20011;51.510;9.942;2022-08-25T10:51:09;4.70;;;3.47;;
33672;SDS011;20011;51.510;9.942;2022-08-25T10:56:32;7.20;;;3.75;;
33672;SDS011;20011;51.510;9.942;2022-08-25T11:04:47;5.35;;;3.55;;
33672;SDS011;20011;51.510;9.942;2022-08-25T11:10:09;4.50;;;3.25;;
33672;SDS011;20011;51.510;9.942;2022-08-25T11:12:43;10.48;;;4.82;;
33672;SDS011;20011;51.510;9.942;2022-08-25T11:15:18;4.78;;;3.40;;
33672;SDS011;20011;51.510;9.942;2022-08-25T11:17:52;3.72;;;3.42;;
33672;SDS011;20011;51.510;9.942;2022-08-25T11:23:24;4.75;;;3.50;;
33672;SDS011;20011;51.510;9.942;2022-08-25T11:26:07;3.47;;;3.17;;
33672;SDS011;20011;51.510;9.942;2022-08-25T11:31:26;11.52;;;4.47;;
33672;SDS011;20011;51.510;9.942;2022-08-25T11:33:54;8.05;;;4.72;;
33672;SDS011;20011;51.510;9.942;2022-08-25T11:47:39;3.75;;;3.13;;
33672;SDS011;20011;51.510;9.942;2022-08-25T11:50:26;3.90;;;2.90;;
33672;SDS011;20011;51.510;9.942;2022-08-25T11:53:18;9.48;;;4.38;;
33672;SDS011;20011;51.510;9.942;2022-08-25T11:56:00;4.63;;;2.95;;
33672;SDS011;20011;51.510;9.942;2022-08-25T11:58:47;3.88;;;3.33;;
33672;SDS011;20011;51.510;9.942;2022-08-25T12:09:33;4.70;;;3.67;;
33672;SDS011;20011;51.510;9.942;2022-08-25T12:12:31;4.25;;;3.80;;
33672;SDS011;20011;51.510;9.942;2022-08-25T12:15:24;5.95;;;3.85;;
33672;SDS011;20011;51.510;9.942;2022-08-25T12:18:08;4.97;;;3.63;;
33672;SDS011;20011;51.510;9.942;2022-08-25T12:23:28;4.70;;;3.63;;
33672;SDS011;20011;51.510;9.942;2022-08-25T12:25:57;5.75;;;3.72;;
33672;SDS011;20011;51.510;9.942;2022-08-25T12:31:22;10.65;;;3.92;;
33672;SDS011;20011;51.510;9.942;2022-08-25T12:34:24;10.88;;;5.97;;
33672;SDS011;20011;51.510;9.942;2022-08-25T12:37:13;6.35;;;4.90;;
33672;SDS011;20011;51.510;9.942;2022-08-25T12:42:20;10.35;;;4.53;;
33672;SDS011;20011;51.510;9.942;2022-08-25T12:45:12;4.38;;;3.53;;
33672;SDS011;20011;51.510;9.942;2022-08-25T12:47:41;5.15;;;3.75;;
33672;SDS011;20011;51.510;9.942;2022-08-25T12:50:26;3.97;;;3.17;;
33672;SDS011;20011;51.510;9.942;2022-08-25T12:53:11;7.63;;;3.55;;
33672;SDS011;20011;51.510;9.942;2022-08-25T12:55:50;3.78;;;3.22;;
33672;SDS011;20011;51.510;9.942;2022-08-25T12:58:27;7.07;;;3.78;;
33672;SDS011;20011;51.510;9.942;2022-08-25T13:01:35;6.75;;;3.30;;
33672;SDS011;20011;51.510;9.942;2022-08-25T13:12:21;7.57;;;4.35;;
33672;SDS011;20011;51.510;9.942;2022-08-25T13:14:55;6.13;;;4.50;;
33672;SDS011;20011;51.510;9.942;2022-08-25T13:17:27;11.77;;;5.85;;
33672;SDS011;20011;51.510;9.942;2022-08-25T13:20:12;11.13;;;7.30;;
33672;SDS011;20011;51.510;9.942;2022-08-25T13:22:48;10.77;;;7.47;;
33672;SDS011;20011;51.510;9.942;2022-08-25T13:25:23;12.55;;;7.38;;
33672;SDS011;20011;51.510;9.942;2022-08-25T13:27:59;10.45;;;6.65;;
33672;SDS011;20011;51.510;9.942;2022-08-25T13:30:30;10.27;;;7.60;;
33672;SDS011;20011;51.510;9.942;2022-08-25T13:33:13;13.57;;;7.55;;
33672;SDS011;20011;51.510;9.942;2022-08-25T13:35:46;12.63;;;6.70;;
33672;SDS011;20011;51.510;9.942;2022-08-25T13:38:17;14.95;;;8.13;;
33672;SDS011;20011;51.510;9.942;2022-08-25T13:40:46;13.77;;;6.70;;
33672;SDS011;20011;51.510;9.942;2022-08-25T13:43:14;11.15;;;7.13;;
33672;SDS011;20011;51.510;9.942;2022-08-25T13:45:43;7.80;;;5.88;;
33672;SDS011;20011;51.510;9.942;2022-08-25T13:48:30;10.32;;;6.60;;
33672;SDS011;20011;51.510;9.942;2022-08-25T13:53:50;10.53;;;6.57;;
33672;SDS011;20011;51.510;9.942;2022-08-25T13:58:56;8.73;;;6.15;;
33672;SDS011;20011;51.510;9.942;2022-08-25T14:01:42;9.05;;;6.32;;
33672;SDS011;20011;51.510;9.942;2022-08-25T14:04:28;9.63;;;5.95;;
33672;SDS011;20011;51.510;9.942;2022-08-25T14:09:50;10.70;;;6.63;;
33672;SDS011;20011;51.510;9.942;2022-08-25T14:17:46;13.35;;;7.50;;
33672;SDS011;20011;51.510;9.942;2022-08-25T14:20:25;13.82;;;7.25;;
33672;SDS011;20011;51.510;9.942;2022-08-25T14:23:02;11.45;;;5.97;;
33672;SDS011;20011;51.510;9.942;2022-08-25T14:25:35;7.72;;;5.93;;
33672;SDS011;20011;51.510;9.942;2022-08-25T14:28:11;11.50;;;6.53;;
33672;SDS011;20011;51.510;9.942;2022-08-25T14:30:48;8.23;;;6.03;;
33672;SDS011;20011;51.510;9.942;2022-08-25T14:33:22;11.18;;;6.97;;
33672;SDS011;20011;51.510;9.942;2022-08-25T14:35:53;7.57;;;5.70;;
33672;SDS011;20011;51.510;9.942;2022-08-25T14:38:23;8.82;;;6.47;;
33672;SDS011;20011;51.510;9.942;2022-08-25T14:40:51;10.63;;;6.10;;
33672;SDS011;20011;51.510;9.942;2022-08-25T14:43:19;7.55;;;5.90;;
33672;SDS011;20011;51.510;9.942;2022-08-25T14:45:56;7.68;;;6.45;;
33672;SDS011;20011;51.510;9.942;2022-08-25T14:48:28;10.75;;;6.05;;
33672;SDS011;20011;51.510;9.942;2022-08-25T14:51:04;16.73;;;8.93;;
33672;SDS011;20011;51.510;9.942;2022-08-25T14:53:31;15.15;;;9.15;;
33672;SDS011;20011;51.510;9.942;2022-08-25T14:55:59;12.80;;;7.53;;
33672;SDS011;20011;51.510;9.942;2022-08-25T14:58:34;10.00;;;7.05;;
33672;SDS011;20011;51.510;9.942;2022-08-25T15:01:17;8.60;;;5.80;;
33672;SDS011;20011;51.510;9.942;2022-08-25T15:04:05;9.60;;;5.95;;
33672;SDS011;20011;51.510;9.942;2022-08-25T15:06:37;10.35;;;6.13;;
33672;SDS011;20011;51.510;9.942;2022-08-25T15:09:13;8.35;;;6.25;;
33672;SDS011;20011;51.510;9.942;2022-08-25T15:11:43;9.98;;;6.43;;
33672;SDS011;20011;51.510;9.942;2022-08-25T15:14:17;9.02;;;5.80;;
33672;SDS011;20011;51.510;9.942;2022-08-25T15:16:58;8.65;;;5.82;;
33672;SDS011;20011;51.510;9.942;2022-08-25T15:19:26;10.18;;;5.57;;
33672;SDS011;20011;51.510;9.942;2022-08-25T15:21:53;13.15;;;5.85;;
33672;SDS011;20011;51.510;9.942;2022-08-25T15:24:24;23.42;;;6.35;;
33672;SDS011;20011;51.510;9.942;2022-08-25T15:26:54;12.73;;;6.15;;
33672;SDS011;20011;51.510;9.942;2022-08-25T15:29:24;17.60;;;5.93;;
33672;SDS011;20011;51.510;9.942;2022-08-25T15:31:55;11.77;;;6.00;;
33672;SDS011;20011;51.510;9.942;2022-08-25T15:34:24;8.43;;;5.77;;
33672;SDS011;20011;51.510;9.942;2022-08-25T15:36:52;9.63;;;5.93;;
33672;SDS011;20011;51.510;9.942;2022-08-25T15:39:19;12.23;;;5.68;;
33672;SDS011;20011;51.510;9.942;2022-08-25T15:41:47;10.80;;;6.07;;
33672;SDS011;20011;51.510;9.942;2022-08-25T15:44:17;9.15;;;5.57;;
33672;SDS011;20011;51.510;9.942;2022-08-25T15:46:45;9.95;;;5.78;;
33672;SDS011;20011;51.510;9.942;2022-08-25T15:49:15;9.60;;;6.47;;
33672;SDS011;20011;51.510;9.942;2022-08-25T15:51:49;8.45;;;6.05;;
33672;SDS011;20011;51.510;9.942;2022-08-25T15:54:18;8.65;;;5.10;;
33672;SDS011;20011;51.510;9.942;2022-08-25T15:56:46;9.07;;;5.93;;
33672;SDS011;20011;51.510;9.942;2022-08-25T15:59:13;10.73;;;6.03;;
33672;SDS011;20011;51.510;9.942;2022-08-25T16:01:41;8.77;;;5.93;;
33672;SDS011;20011;51.510;9.942;2022-08-25T16:04:11;10.57;;;5.22;;
33672;SDS011;20011;51.510;9.942;2022-08-25T16:06:39;11.75;;;7.80;;
33672;SDS011;20011;51.510;9.942;2022-08-25T16:09:07;13.35;;;6.55;;
33672;SDS011;20011;51.510;9.942;2022-08-25T16:11:34;13.73;;;7.60;;
33672;SDS011;20011;51.510;9.942;2022-08-25T16:14:04;13.48;;;7.82;;
33672;SDS011;20011;51.510;9.942;2022-08-25T16:16:32;13.68;;;7.03;;
33672;SDS011;20011;51.510;9.942;2022-08-25T16:18:59;12.05;;;7.13;;
33672;SDS011;20011;51.510;9.942;2022-08-25T16:21:29;9.63;;;6.20;;
33672;SDS011;20011;51.510;9.942;2022-08-25T16:23:59;39.15;;;7.85;;
33672;SDS011;20011;51.510;9.942;2022-08-25T16:26:33;28.13;;;7.72;;
33672;SDS011;20011;51.510;9.942;2022-08-25T16:29:13;13.73;;;7.20;;
33672;SDS011;20011;51.510;9.942;2022-08-25T16:31:41;11.45;;;6.47;;
33672;SDS011;20011;51.510;9.942;2022-08-25T16:34:09;18.13;;;7.32;;
33672;SDS011;20011;51.510;9.942;2022-08-25T16:36:37;13.13;;;7.53;;
33672;SDS011;20011;51.510;9.942;2022-08-25T16:39:05;11.63;;;6.43;;
33672;SDS011;20011;51.510;9.942;2022-08-25T16:41:38;8.77;;;6.72;;
33672;SDS011;20011;51.510;9.942;2022-08-25T16:44:06;8.93;;;6.47;;
33672;SDS011;20011;51.510;9.942;2022-08-25T16:46:36;10.77;;;6.68;;
33672;SDS011;20011;51.510;9.942;2022-08-25T16:49:06;12.70;;;6.38;;
33672;SDS011;20011;51.510;9.942;2022-08-25T16:51:35;13.50;;;7.07;;
33672;SDS011;20011;51.510;9.942;2022-08-25T16:54:04;12.73;;;5.78;;
33672;SDS011;20011;51.510;9.942;2022-08-25T16:56:51;12.57;;;6.82;;
33672;SDS011;20011;51.510;9.942;2022-08-25T16:59:21;9.57;;;6.63;;
33672;SDS011;20011;51.510;9.942;2022-08-25T17:01:49;9.35;;;6.18;;
33672;SDS011;20011;51.510;9.942;2022-08-25T17:04:18;10.95;;;6.30;;
33672;SDS011;20011;51.510;9.942;2022-08-25T17:06:55;30.80;;;8.38;;
33672;SDS011;20011;51.510;9.942;2022-08-25T17:09:21;20.40;;;7.35;;
33672;SDS011;20011;51.510;9.942;2022-08-25T17:11:49;13.48;;;6.50;;
33672;SDS011;20011;51.510;9.942;2022-08-25T17:16:46;11.52;;;6.35;;
33672;SDS011;20011;51.510;9.942;2022-08-25T17:19:16;13.00;;;6.63;;
33672;SDS011;20011;51.510;9.942;2022-08-25T17:21:44;10.85;;;6.43;;